Terminal Aerodrome Forecast
Issued by NWS

Home | Current Version | Previous Version | Text Only | Print | Product List | Glossary On
Versions: 1 2 3 4 5 6 7 8 9 10 11 12 13 14 15 16 17 18 19
000
FTUS45 KRIW 220900 AAA
TAFCPR
TAF AMD
KCPR 220958Z 2210/2306 VRB04KT P6SM VCFG OVC005
     FM221500 VRB05KT P6SM SCT005 BKN080
     FM222200 09012G20KT P6SM VCSH SCT030 BKN050
     FM230100 09010KT P6SM VCSH SCT020 BKN035=

USA.gov is the U.S. government's official web portal to all federal, state and local government web resources and services.